createdAt,value
2022-08-18T00:01:34.425Z,22.87
2022-08-18T00:04:03.426Z,22.86
2022-08-18T00:06:31.319Z,22.85
2022-08-18T00:09:00.732Z,22.91
2022-08-18T00:11:41.245Z,22.83
2022-08-18T00:14:21.425Z,22.82
2022-08-18T00:16:51.132Z,22.84
2022-08-18T00:19:18.007Z,22.79
2022-08-18T00:21:44.942Z,22.77
2022-08-18T00:24:11.887Z,22.67
2022-08-18T00:26:38.907Z,22.62
2022-08-18T00:29:05.716Z,22.55
2022-08-18T00:31:33.439Z,22.50
2022-08-18T00:34:00.461Z,22.49
2022-08-18T00:36:27.816Z,22.56
2022-08-18T00:38:54.949Z,22.60
2022-08-18T00:41:26.369Z,22.52
2022-08-18T00:43:54.667Z,22.47
2022-08-18T00:46:27.034Z,22.57
2022-08-18T00:48:54.434Z,22.64
2022-08-18T00:51:37.107Z,22.64
2022-08-18T00:54:08.932Z,22.63
2022-08-18T00:56:44.929Z,22.53
2022-08-18T00:59:19.566Z,22.61
2022-08-18T01:01:48.281Z,22.60
2022-08-18T01:04:28.186Z,22.55
2022-08-18T01:06:58.644Z,22.63
2022-08-18T01:09:44.286Z,22.61
2022-08-18T01:12:12.546Z,22.57
2022-08-18T01:14:58.530Z,22.52
2022-08-18T01:17:46.168Z,22.44
2022-08-18T01:20:36.160Z,22.39
2022-08-18T01:23:11.403Z,22.42
2022-08-18T01:26:02.389Z,22.54
2022-08-18T01:28:39.645Z,22.33
2022-08-18T01:31:06.921Z,22.41
2022-08-18T01:33:39.880Z,22.40
2022-08-18T01:36:16.808Z,22.31
2022-08-18T01:38:45.547Z,22.26
2022-08-18T01:41:28.606Z,22.27
2022-08-18T01:43:57.164Z,22.26
2022-08-18T01:46:24.456Z,22.09
2022-08-18T01:48:51.585Z,21.97
2022-08-18T01:51:20.555Z,21.83
2022-08-18T01:54:05.616Z,21.83
2022-08-18T01:56:32.547Z,21.76
2022-08-18T01:58:59.246Z,21.69
2022-08-18T02:01:36.470Z,21.80
2022-08-18T02:04:31.582Z,21.74
2022-08-18T02:06:54.583Z,21.68
2022-08-18T02:09:23.855Z,21.66
2022-08-18T02:11:53.598Z,21.73
2022-08-18T02:14:26.928Z,21.67
2022-08-18T02:17:01.683Z,21.59
2022-08-18T02:19:34.888Z,21.59
2022-08-18T02:22:02.154Z,21.54
2022-08-18T02:24:29.107Z,21.51
2022-08-18T02:26:56.062Z,21.43
2022-08-18T02:29:22.959Z,21.47
2022-08-18T02:31:49.854Z,21.40
2022-08-18T02:34:17.798Z,21.35
2022-08-18T02:36:45.661Z,21.31
2022-08-18T02:39:12.802Z,21.19
2022-08-18T02:41:39.595Z,21.20
2022-08-18T02:44:08.343Z,21.17
2022-08-18T02:46:36.022Z,21.17
2022-08-18T02:49:05.320Z,21.10
2022-08-18T02:51:32.187Z,21.08
2022-08-18T02:53:59.412Z,20.91
2022-08-18T02:56:41.484Z,21.01
2022-08-18T02:59:11.743Z,21.01
2022-08-18T03:01:42.971Z,20.96
2022-08-18T03:04:12.746Z,20.96
2022-08-18T03:06:39.809Z,20.80
2022-08-18T03:09:11.115Z,20.86
2022-08-18T03:11:38.245Z,20.84
2022-08-18T03:14:11.155Z,20.90
2022-08-18T03:16:47.609Z,20.79
2022-08-18T03:19:29.105Z,20.71
2022-08-18T03:21:59.329Z,20.65
2022-08-18T03:24:29.896Z,20.72
2022-08-18T03:26:57.394Z,20.79
2022-08-18T03:29:29.553Z,20.73
2022-08-18T03:31:58.702Z,20.69
2022-08-18T03:34:25.573Z,20.65
2022-08-18T03:36:52.464Z,20.66
2022-08-18T03:39:20.547Z,20.69
2022-08-18T03:41:58.213Z,20.60
2022-08-18T03:44:28.115Z,20.55
2022-08-18T03:46:54.824Z,20.54
2022-08-18T03:49:21.753Z,20.58
2022-08-18T03:51:49.218Z,20.63
2022-08-18T03:54:17.822Z,20.57
2022-08-18T03:56:46.471Z,20.56
2022-08-18T03:59:22.172Z,20.56
2022-08-18T04:01:51.246Z,20.44
2022-08-18T04:04:21.836Z,20.49
2022-08-18T04:06:58.381Z,20.50
2022-08-18T04:09:28.002Z,20.55
2022-08-18T04:11:56.204Z,20.50
2022-08-18T04:14:25.026Z,20.54
2022-08-18T04:16:52.626Z,20.53
2022-08-18T04:19:27.477Z,20.49
2022-08-18T04:21:56.960Z,20.54
2022-08-18T04:24:26.481Z,20.53
2022-08-18T04:26:53.411Z,20.59
2022-08-18T04:29:21.512Z,20.54
2022-08-18T04:31:50.257Z,20.57
2022-08-18T04:34:20.595Z,20.60
2022-08-18T04:36:47.993Z,20.56
2022-08-18T04:39:15.763Z,20.55
2022-08-18T04:41:44.020Z,20.59
2022-08-18T04:44:12.901Z,20.54
2022-08-18T04:46:43.278Z,20.64
2022-08-18T04:49:12.024Z,20.53
2022-08-18T04:52:27.064Z,20.53
2022-08-18T04:54:29.547Z,20.58
2022-08-18T04:56:56.439Z,20.61
2022-08-18T04:59:23.336Z,20.64
2022-08-18T05:01:50.099Z,20.71
2022-08-18T05:04:17.845Z,20.61
2022-08-18T05:06:46.054Z,20.63
2022-08-18T05:09:16.707Z,20.64
2022-08-18T05:11:51.090Z,20.78
2022-08-18T05:14:18.779Z,20.78
2022-08-18T05:16:48.982Z,20.83
2022-08-18T05:19:23.214Z,20.94
2022-08-18T05:21:52.185Z,20.86
2022-08-18T05:24:24.632Z,20.89
2022-08-18T05:26:52.705Z,21.00
2022-08-18T05:29:23.571Z,21.09
2022-08-18T05:31:53.024Z,21.07
2022-08-18T05:34:21.890Z,21.28
2022-08-18T05:36:48.983Z,21.37
2022-08-18T05:39:23.907Z,21.36
2022-08-18T05:41:55.858Z,21.47
2022-08-18T05:44:27.333Z,21.49
2022-08-18T05:46:57.049Z,21.58
2022-08-18T05:49:26.455Z,21.73
2022-08-18T05:52:08.392Z,21.82
2022-08-18T05:55:04.049Z,21.82
2022-08-18T05:57:37.718Z,21.92
2022-08-18T06:00:07.401Z,22.05
2022-08-18T06:03:02.070Z,22.27
2022-08-18T06:05:34.710Z,22.70
2022-08-18T06:08:22.697Z,23.07
2022-08-18T06:10:51.075Z,23.40
2022-08-18T06:13:20.207Z,23.86
2022-08-18T06:15:53.220Z,23.80
2022-08-18T06:18:32.202Z,24.11
2022-08-18T06:21:11.506Z,23.86
2022-08-18T06:23:57.187Z,23.89
2022-08-18T06:26:52.540Z,24.57
2022-08-18T06:29:24.997Z,25.80
2022-08-18T06:31:51.879Z,26.21
2022-08-18T06:34:24.522Z,26.70
2022-08-18T06:37:01.096Z,27.02
2022-08-18T06:39:43.311Z,27.23
2022-08-18T06:42:10.119Z,26.73
2022-08-18T06:44:46.922Z,26.17
2022-08-18T06:47:53.057Z,26.67
2022-08-18T06:50:26.481Z,27.00
2022-08-18T06:52:58.862Z,26.50
2022-08-18T06:55:40.684Z,27.13
2022-08-18T06:58:13.616Z,27.44
2022-08-18T07:00:55.217Z,27.28
2022-08-18T07:03:45.167Z,27.10
2022-08-18T07:06:24.938Z,26.62
2022-08-18T07:08:54.693Z,26.85
2022-08-18T07:11:34.253Z,26.78
2022-08-18T07:14:24.458Z,26.91
2022-08-18T07:17:05.934Z,26.21
2022-08-18T07:19:33.118Z,26.25
2022-08-18T07:22:07.713Z,26.07
2022-08-18T07:24:46.116Z,26.27
2022-08-18T07:27:17.696Z,26.43
2022-08-18T07:30:15.506Z,26.40
2022-08-18T07:32:55.516Z,26.38
2022-08-18T07:35:31.257Z,26.54
2022-08-18T07:38:41.525Z,26.49
2022-08-18T07:41:11.392Z,26.38
2022-08-18T07:43:51.341Z,26.51
2022-08-18T07:46:45.251Z,26.56
2022-08-18T07:49:22.419Z,26.65
2022-08-18T07:52:24.208Z,26.75
2022-08-18T07:55:28.133Z,26.75
2022-08-18T07:58:33.733Z,26.86
2022-08-18T08:01:05.730Z,26.87
2022-08-18T08:04:01.438Z,26.78
2022-08-18T08:06:37.509Z,26.92
2022-08-18T08:09:13.684Z,26.90
2022-08-18T08:11:56.389Z,26.72
2022-08-18T08:15:17.617Z,27.12
2022-08-18T08:18:12.774Z,27.22
2022-08-18T08:20:46.144Z,27.25
2022-08-18T08:23:33.375Z,27.44
2022-08-18T08:26:31.781Z,27.31
2022-08-18T08:29:20.236Z,27.39
2022-08-18T08:32:01.272Z,27.42
2022-08-18T08:34:31.349Z,27.81
2022-08-18T08:37:02.458Z,27.78
2022-08-18T08:39:37.766Z,27.81
2022-08-18T08:42:30.800Z,28.01
2022-08-18T08:45:10.706Z,28.01
2022-08-18T08:47:42.373Z,28.06
2022-08-18T08:50:20.576Z,28.20
2022-08-18T08:52:59.381Z,28.18
2022-08-18T08:55:37.207Z,28.11
2022-08-18T08:58:24.879Z,28.43
2022-08-18T09:00:53.117Z,28.46
2022-08-18T09:03:37.920Z,28.64
2022-08-18T09:06:38.370Z,29.35
2022-08-18T09:09:36.532Z,29.32
2022-08-18T09:12:06.471Z,29.76
2022-08-18T09:14:48.368Z,30.23
2022-08-18T09:18:18.593Z,30.49
2022-08-18T09:21:04.631Z,30.06
2022-08-18T09:23:41.332Z,30.23
2022-08-18T09:26:40.478Z,30.83
2022-08-18T09:29:25.537Z,30.75
2022-08-18T09:32:27.606Z,30.90
2022-08-18T09:35:11.798Z,30.68
2022-08-18T09:41:31.899Z,30.69
2022-08-18T09:44:21.569Z,30.52
2022-08-18T09:49:53.634Z,30.70
2022-08-18T09:52:29.226Z,30.81
2022-08-18T09:54:59.164Z,30.85
2022-08-18T09:57:31.529Z,30.74
2022-08-18T10:00:12.487Z,30.38
2022-08-18T10:02:40.313Z,30.09
2022-08-18T10:05:19.463Z,30.08
2022-08-18T10:08:08.161Z,30.38
2022-08-18T10:14:05.726Z,31.15
2022-08-18T10:17:23.613Z,31.24
2022-08-18T10:20:03.406Z,32.02
2022-08-18T10:22:48.209Z,32.31
2022-08-18T10:25:48.594Z,32.78
2022-08-18T10:29:07.032Z,33.13
2022-08-18T10:31:56.162Z,33.55
2022-08-18T10:34:53.569Z,33.67
2022-08-18T10:37:47.232Z,34.07
2022-08-18T10:40:22.752Z,34.20
2022-08-18T10:49:12.922Z,35.03
2022-08-18T10:52:00.141Z,35.09
2022-08-18T10:54:54.608Z,35.34
2022-08-18T10:57:56.427Z,34.99
2022-08-18T11:00:39.060Z,35.10
2022-08-18T11:03:51.208Z,34.71
2022-08-18T11:06:24.690Z,35.08
2022-08-18T11:09:05.261Z,35.48
2022-08-18T11:11:45.591Z,35.54
2022-08-18T11:15:22.679Z,35.40
2022-08-18T11:18:11.461Z,35.60
2022-08-18T11:20:40.581Z,36.08
2022-08-18T11:23:17.583Z,35.86
2022-08-18T11:25:45.520Z,35.65
2022-08-18T11:28:19.083Z,35.89
2022-08-18T11:30:50.642Z,35.75
2022-08-18T11:33:23.073Z,36.10
2022-08-18T11:36:01.494Z,35.86
2022-08-18T11:38:44.556Z,35.80
2022-08-18T11:41:23.140Z,35.50
2022-08-18T11:46:40.871Z,35.41
2022-08-18T11:49:35.251Z,34.29
2022-08-18T11:52:19.807Z,34.61
2022-08-18T11:55:14.617Z,34.53
2022-08-18T11:57:58.940Z,34.65
2022-08-18T12:00:36.513Z,34.63
2022-08-18T12:03:20.715Z,35.16
2022-08-18T12:05:57.275Z,34.75
2022-08-18T12:08:58.081Z,34.25
2022-08-18T12:11:48.817Z,34.50
2022-08-18T12:15:01.074Z,34.31
2022-08-18T12:17:36.918Z,34.80
2022-08-18T12:20:07.578Z,34.74
2022-08-18T12:22:43.323Z,34.74
2022-08-18T12:25:13.516Z,34.46
2022-08-18T12:27:40.519Z,34.71
2022-08-18T12:30:16.564Z,34.66
2022-08-18T12:35:30.579Z,34.66
2022-08-18T12:38:00.312Z,34.56
2022-08-18T12:40:40.134Z,34.64
2022-08-18T12:43:07.140Z,34.54
2022-08-18T12:45:34.452Z,35.01
2022-08-18T12:48:04.749Z,34.50
2022-08-18T12:50:41.144Z,35.00
2022-08-18T12:53:17.218Z,34.45
2022-08-18T12:55:45.684Z,33.76
2022-08-18T12:58:13.065Z,34.59
2022-08-18T13:00:41.132Z,34.53
2022-08-18T13:03:08.582Z,34.16
2022-08-18T13:05:36.086Z,34.41
2022-08-18T13:08:05.557Z,34.60
2022-08-18T13:10:46.153Z,34.40
2022-08-18T13:13:19.120Z,33.92
2022-08-18T13:15:57.782Z,34.20
2022-08-18T13:18:28.715Z,33.95
2022-08-18T13:21:00.164Z,34.52
2022-08-18T13:23:27.767Z,34.47
2022-08-18T13:26:01.427Z,34.17
2022-08-18T13:28:33.473Z,34.34
2022-08-18T13:31:05.444Z,34.70
2022-08-18T13:33:35.374Z,34.74
2022-08-18T13:36:20.492Z,33.83
2022-08-18T13:38:52.330Z,34.22
2022-08-18T13:41:23.453Z,34.73
2022-08-18T13:43:51.701Z,34.12
2022-08-18T13:46:29.963Z,34.36
2022-08-18T13:49:03.132Z,34.19
2022-08-18T13:51:30.964Z,34.19
2022-08-18T13:54:17.959Z,34.57
2022-08-18T13:56:51.383Z,35.09
2022-08-18T13:59:27.067Z,34.69
2022-08-18T14:01:54.000Z,34.85
2022-08-18T14:04:22.581Z,34.84
2022-08-18T14:06:57.042Z,34.73
2022-08-18T14:09:36.076Z,34.93
2022-08-18T14:12:21.455Z,34.99
2022-08-18T14:14:52.479Z,35.12
2022-08-18T14:17:22.556Z,35.24
2022-08-18T14:20:10.700Z,34.90
2022-08-18T14:23:00.828Z,35.22
2022-08-18T14:25:46.550Z,34.88
2022-08-18T14:28:13.782Z,34.59
2022-08-18T14:30:50.855Z,34.61
2022-08-18T14:33:49.615Z,34.69
2022-08-18T14:36:11.751Z,34.86
2022-08-18T14:38:39.371Z,34.63
2022-08-18T14:41:09.780Z,34.30
2022-08-18T14:44:10.883Z,33.99
2022-08-18T14:46:23.867Z,33.99
2022-08-18T14:48:56.672Z,33.57
2022-08-18T14:51:27.362Z,33.21
2022-08-18T14:53:55.302Z,33.36
2022-08-18T14:56:24.390Z,32.91
2022-08-18T14:58:55.919Z,32.89
2022-08-18T15:01:24.653Z,32.64
2022-08-18T15:03:54.450Z,32.26
2022-08-18T15:06:22.877Z,32.46
2022-08-18T15:08:54.965Z,32.27
2022-08-18T15:11:24.727Z,32.14
2022-08-18T15:13:54.944Z,32.60
2022-08-18T15:16:27.121Z,31.96
2022-08-18T15:18:59.049Z,32.14
2022-08-18T15:21:44.188Z,32.33
2022-08-18T15:24:29.588Z,32.45
2022-08-18T15:27:03.286Z,31.99
2022-08-18T15:29:34.076Z,32.40
2022-08-18T15:32:05.566Z,32.89
2022-08-18T15:34:46.935Z,32.70
2022-08-18T15:37:16.030Z,32.71
2022-08-18T15:39:55.425Z,32.85
2022-08-18T15:42:23.652Z,32.24
2022-08-18T15:44:52.693Z,32.48
2022-08-18T15:47:22.060Z,32.04
2022-08-18T15:49:52.039Z,32.34
2022-08-18T15:52:23.311Z,32.14
2022-08-18T15:54:50.403Z,32.08
2022-08-18T15:57:35.997Z,32.13
2022-08-18T16:00:06.686Z,31.51
2022-08-18T16:02:33.678Z,31.96
2022-08-18T16:05:05.542Z,31.60
2022-08-18T16:07:41.231Z,31.19
2022-08-18T16:10:14.445Z,31.41
2022-08-18T16:12:45.808Z,31.26
2022-08-18T16:15:19.934Z,30.66
2022-08-18T16:17:51.286Z,31.02
2022-08-18T16:20:19.508Z,30.50
2022-08-18T16:22:47.729Z,30.60
2022-08-18T16:25:16.385Z,30.49
2022-08-18T16:27:44.372Z,30.24
2022-08-18T16:30:15.513Z,30.00
2022-08-18T16:32:42.505Z,29.49
2022-08-18T16:35:09.472Z,29.41
2022-08-18T16:37:36.178Z,29.32
2022-08-18T16:40:04.361Z,29.05
2022-08-18T16:42:33.034Z,28.83
2022-08-18T16:45:00.567Z,28.70
2022-08-18T16:47:29.206Z,28.61
2022-08-18T16:49:58.653Z,28.21
2022-08-18T16:52:27.075Z,28.11
2022-08-18T16:54:57.545Z,28.00
2022-08-18T16:57:53.744Z,28.01
2022-08-18T17:00:42.508Z,27.85
2022-08-18T17:03:29.549Z,27.49
2022-08-18T17:06:00.457Z,27.19
2022-08-18T17:08:27.564Z,27.28
2022-08-18T17:10:55.077Z,26.89
2022-08-18T17:13:21.842Z,26.94
2022-08-18T17:15:52.264Z,26.79
2022-08-18T17:18:20.018Z,26.66
2022-08-18T17:20:46.944Z,26.66
2022-08-18T17:23:14.301Z,26.37
2022-08-18T17:25:41.134Z,26.23
2022-08-18T17:28:23.033Z,26.42
2022-08-18T17:30:53.294Z,26.21
2022-08-18T17:33:26.280Z,26.09
2022-08-18T17:35:56.352Z,26.18
2022-08-18T17:38:29.795Z,26.07
2022-08-18T17:46:36.763Z,25.92
2022-08-18T17:49:11.011Z,25.77
2022-08-18T17:51:44.517Z,25.75
2022-08-18T17:54:30.352Z,25.65
2022-08-18T17:57:01.804Z,25.66
2022-08-18T17:59:45.807Z,25.71
2022-08-18T18:02:29.723Z,25.50
2022-08-18T18:05:00.193Z,25.34
2022-08-18T18:07:52.824Z,25.43
2022-08-18T18:10:25.853Z,25.30
2022-08-18T18:13:10.079Z,25.13
2022-08-18T18:15:41.614Z,24.98
2022-08-18T18:18:30.008Z,24.85
2022-08-18T18:20:58.794Z,24.88
2022-08-18T18:23:31.092Z,24.80
2022-08-18T18:25:58.294Z,24.75
2022-08-18T18:28:29.771Z,24.82
2022-08-18T18:30:59.114Z,24.73
2022-08-18T18:33:30.560Z,24.60
2022-08-18T18:36:00.738Z,24.62
2022-08-18T18:38:37.903Z,24.43
2022-08-18T18:41:13.802Z,24.46
2022-08-18T18:43:43.626Z,24.53
2022-08-18T18:46:24.961Z,24.58
2022-08-18T18:49:11.376Z,24.47
2022-08-18T18:51:55.700Z,24.18
2022-08-18T18:54:34.444Z,24.28
2022-08-18T18:57:12.090Z,24.20
2022-08-18T18:59:45.404Z,24.23
2022-08-18T19:02:53.803Z,24.38
2022-08-18T19:05:20.437Z,24.36
2022-08-18T19:08:19.169Z,24.39
2022-08-18T19:11:00.237Z,24.44
2022-08-18T19:13:43.545Z,24.35
2022-08-18T19:16:24.218Z,24.38
2022-08-18T19:18:57.794Z,24.35
2022-08-18T19:22:05.034Z,24.29
2022-08-18T19:24:40.452Z,24.21
2022-08-18T19:27:36.502Z,24.16
2022-08-18T19:30:21.352Z,24.25
2022-08-18T19:32:55.290Z,24.20
2022-08-18T19:35:47.082Z,24.23
2022-08-18T19:38:22.677Z,24.16
2022-08-18T19:40:52.328Z,24.29
2022-08-18T19:44:00.553Z,24.30
2022-08-18T19:46:37.136Z,24.28
2022-08-18T19:49:16.759Z,24.27
2022-08-18T19:52:52.571Z,24.20
2022-08-18T19:55:50.450Z,23.99
2022-08-18T19:59:15.129Z,23.91
2022-08-18T20:02:23.301Z,23.99
2022-08-18T20:05:03.477Z,24.01
2022-08-18T20:08:01.402Z,23.90
2022-08-18T20:10:58.902Z,23.80
2022-08-18T20:13:35.343Z,23.77
2022-08-18T20:16:02.151Z,23.73
2022-08-18T20:18:44.262Z,23.62
2022-08-18T20:21:14.052Z,23.54
2022-08-18T20:23:56.397Z,23.62
2022-08-18T20:26:37.726Z,23.66
2022-08-18T20:29:12.458Z,23.54
2022-08-18T20:32:00.155Z,23.53
2022-08-18T20:34:31.761Z,23.39
2022-08-18T20:37:01.515Z,23.41
2022-08-18T20:39:48.926Z,23.26
2022-08-18T20:42:21.889Z,23.35
2022-08-18T20:44:48.586Z,23.23
2022-08-18T20:47:18.495Z,23.08
2022-08-18T20:49:51.023Z,23.11
2022-08-18T20:52:48.912Z,22.90
2022-08-18T20:55:30.771Z,23.08
2022-08-18T20:58:05.378Z,23.08
2022-08-18T21:00:37.156Z,23.06
2022-08-18T21:03:12.942Z,23.01
2022-08-18T21:05:43.592Z,22.95
2022-08-18T21:08:16.149Z,22.95
2022-08-18T21:10:52.281Z,22.68
2022-08-18T21:13:39.963Z,22.79
2022-08-18T21:16:25.882Z,22.78
2022-08-18T21:19:13.682Z,22.76
2022-08-18T21:21:52.398Z,22.72
2022-08-18T21:24:29.693Z,22.71
2022-08-18T21:26:58.970Z,22.67
2022-08-18T21:29:26.786Z,22.79
2022-08-18T21:32:17.561Z,22.73
2022-08-18T21:34:45.355Z,22.71
2022-08-18T21:37:14.777Z,22.77
2022-08-18T21:39:52.501Z,22.73
2022-08-18T21:42:23.252Z,22.68
2022-08-18T21:44:54.942Z,22.66
2022-08-18T21:47:23.779Z,22.56
2022-08-18T21:50:14.815Z,22.65
2022-08-18T21:52:53.456Z,22.57
2022-08-18T21:55:23.954Z,22.49
2022-08-18T21:58:18.016Z,22.56
2022-08-18T22:01:11.025Z,22.47
2022-08-18T22:03:57.692Z,22.48
2022-08-18T22:06:50.901Z,22.41
2022-08-18T22:09:40.332Z,22.37
2022-08-18T22:12:32.240Z,22.44
2022-08-18T22:15:11.382Z,22.43
2022-08-18T22:17:52.350Z,22.44
2022-08-18T22:20:48.169Z,22.39
2022-08-18T22:23:33.438Z,22.32
2022-08-18T22:26:27.498Z,22.31
2022-08-18T22:28:59.673Z,22.37
2022-08-18T22:31:35.632Z,22.28
2022-08-18T22:34:13.489Z,22.28
2022-08-18T22:36:59.447Z,22.23
2022-08-18T22:39:33.913Z,22.27
2022-08-18T22:42:01.466Z,22.13
2022-08-18T22:44:28.795Z,22.19
2022-08-18T22:46:55.589Z,22.21
2022-08-18T22:49:24.218Z,22.14
2022-08-18T22:51:54.105Z,22.12
2022-08-18T22:54:22.365Z,22.19
2022-08-18T22:56:55.197Z,22.17
2022-08-18T22:59:26.750Z,22.09
2022-08-18T23:01:55.114Z,22.08
2022-08-18T23:04:25.545Z,22.09
2022-08-18T23:06:54.185Z,22.17
2022-08-18T23:09:33.213Z,22.17
2022-08-18T23:12:06.980Z,22.14
2022-08-18T23:14:34.800Z,22.21
2022-08-18T23:17:02.227Z,22.19
2022-08-18T23:19:31.553Z,22.19
2022-08-18T23:22:00.232Z,22.24
2022-08-18T23:24:27.621Z,22.23
2022-08-18T23:26:54.664Z,22.22
2022-08-18T23:29:22.529Z,22.09
2022-08-18T23:31:51.595Z,22.08
2022-08-18T23:34:20.261Z,22.01
2022-08-18T23:36:55.446Z,22.04
2022-08-18T23:39:24.713Z,22.06
2022-08-18T23:41:55.388Z,22.11
2022-08-18T23:44:27.867Z,22.06
2022-08-18T23:46:57.859Z,21.98
2022-08-18T23:49:26.263Z,21.98
2022-08-18T23:51:55.983Z,21.91
2022-08-18T23:54:29.299Z,21.95
2022-08-18T23:56:56.411Z,22.04
2022-08-18T23:59:25.636Z,22.06
